createdAt,value
2018-08-23T00:01:08.810Z,8.03
2018-08-23T00:03:39.125Z,8.63
2018-08-23T00:06:07.723Z,8.33
2018-08-23T00:08:36.338Z,8.20
2018-08-23T00:11:05.041Z,8.17
2018-08-23T00:13:38.934Z,7.77
2018-08-23T00:16:12.812Z,8.17
2018-08-23T00:18:41.802Z,7.63
2018-08-23T00:21:15.590Z,8.47
2018-08-23T00:23:47.521Z,8.30
2018-08-23T00:26:17.332Z,7.97
2018-08-23T00:28:45.849Z,8.43
2018-08-23T00:31:14.567Z,8.40
2018-08-23T00:33:43.137Z,9.97
2018-08-23T00:36:11.923Z,10.03
2018-08-23T00:38:40.649Z,8.83
2018-08-23T00:41:09.298Z,9.60
2018-08-23T00:43:38.125Z,9.27
2018-08-23T00:46:12.052Z,10.03
2018-08-23T00:48:40.718Z,9.27
2018-08-23T00:51:09.347Z,8.47
2018-08-23T00:53:38.257Z,8.47
2018-08-23T00:56:16.075Z,8.73
2018-08-23T00:58:46.691Z,8.47
2018-08-23T01:01:15.860Z,9.23
2018-08-23T01:03:44.723Z,8.37
2018-08-23T01:06:17.708Z,8.80
2018-08-23T01:08:46.317Z,8.70
2018-08-23T01:11:14.867Z,8.93
2018-08-23T01:13:43.825Z,8.80
2018-08-23T01:16:12.966Z,8.47
2018-08-23T01:18:41.671Z,9.07
2018-08-23T01:21:10.877Z,8.20
2018-08-23T01:23:39.914Z,9.07
2018-08-23T01:26:13.604Z,8.67
2018-08-23T01:28:42.243Z,8.60
2018-08-23T01:31:23.128Z,7.93
2018-08-23T01:33:54.738Z,9.00
2018-08-23T01:36:31.621Z,9.17
2018-08-23T01:39:05.107Z,8.90
2018-08-23T01:41:33.659Z,8.80
2018-08-23T01:44:02.227Z,8.80
2018-08-23T01:46:35.936Z,8.87
2018-08-23T01:49:05.937Z,9.07
2018-08-23T01:51:34.794Z,9.23
2018-08-23T01:54:03.376Z,9.20
2018-08-23T01:56:32.360Z,8.47
2018-08-23T01:59:00.958Z,8.33
2018-08-23T02:01:29.889Z,8.67
2018-08-23T02:03:58.473Z,8.20
2018-08-23T02:06:32.404Z,9.17
2018-08-23T02:09:01.341Z,8.83
2018-08-23T02:11:30.688Z,9.37
2018-08-23T02:13:59.286Z,11.07
2018-08-23T02:16:36.564Z,11.07
2018-08-23T02:19:05.198Z,10.60
2018-08-23T02:21:33.973Z,10.83
2018-08-23T02:24:03.307Z,11.70
2018-08-23T02:26:32.367Z,10.43
2018-08-23T02:29:01.057Z,10.60
2018-08-23T02:31:29.679Z,9.63
2018-08-23T02:33:58.243Z,10.23
2018-08-23T02:36:26.793Z,9.80
2018-08-23T02:39:01.331Z,8.93
2018-08-23T02:41:30.241Z,9.80
2018-08-23T02:43:58.964Z,9.67
2018-08-23T02:46:27.755Z,10.90
2018-08-23T02:48:56.319Z,11.03
2018-08-23T02:51:53.705Z,10.70
2018-08-23T02:54:22.260Z,9.53
2018-08-23T02:56:56.290Z,9.60
2018-08-23T02:59:25.359Z,9.33
2018-08-23T03:01:53.965Z,10.13
2018-08-23T03:04:23.670Z,10.10
2018-08-23T03:07:01.030Z,11.77
2018-08-23T03:09:33.187Z,12.73
2018-08-23T03:12:05.925Z,12.77
2018-08-23T03:14:34.640Z,10.73
2018-08-23T03:17:19.889Z,9.80
2018-08-23T03:20:24.255Z,9.83
2018-08-23T03:22:55.051Z,9.17
2018-08-23T03:25:24.702Z,9.97
2018-08-23T03:27:53.681Z,9.93
2018-08-23T03:30:22.899Z,10.27
2018-08-23T03:32:51.581Z,10.23
2018-08-23T03:35:20.198Z,9.20
2018-08-23T03:37:48.737Z,9.90
2018-08-23T03:40:17.820Z,9.33
2018-08-23T03:42:46.558Z,9.40
2018-08-23T03:45:20.324Z,9.40
2018-08-23T03:47:52.283Z,9.40
2018-08-23T03:50:20.882Z,9.57
2018-08-23T03:52:50.780Z,9.30
2018-08-23T03:55:21.569Z,9.60
2018-08-23T03:57:52.164Z,9.27
2018-08-23T04:00:26.623Z,9.60
2018-08-23T04:02:55.669Z,10.17
2018-08-23T04:05:24.325Z,8.83
2018-08-23T04:07:53.247Z,10.07
2018-08-23T04:10:21.925Z,9.70
2018-08-23T04:12:50.502Z,9.73
2018-08-23T04:15:30.209Z,8.77
2018-08-23T04:18:02.960Z,10.30
2018-08-23T04:20:31.540Z,9.47
2018-08-23T04:23:00.287Z,9.93
2018-08-23T04:25:28.854Z,9.87
2018-08-23T04:27:57.539Z,9.70
2018-08-23T04:30:26.226Z,10.47
2018-08-23T04:32:54.825Z,10.23
2018-08-23T04:35:27.869Z,10.10
2018-08-23T04:37:56.694Z,10.83
2018-08-23T04:40:25.324Z,9.80
2018-08-23T04:42:53.911Z,10.07
2018-08-23T04:45:26.330Z,10.07
2018-08-23T04:48:00.304Z,10.33
2018-08-23T04:50:28.928Z,11.37
2018-08-23T04:52:57.494Z,11.37
2018-08-23T04:55:26.577Z,10.40
2018-08-23T04:57:55.783Z,10.40
2018-08-23T05:00:24.380Z,10.47
2018-08-23T05:02:53.181Z,9.37
2018-08-23T05:05:21.769Z,10.23
2018-08-23T05:07:50.575Z,10.17
2018-08-23T05:10:19.208Z,10.10
2018-08-23T05:12:47.824Z,9.60
2018-08-23T05:15:16.593Z,10.60
2018-08-23T05:17:45.385Z,10.00
2018-08-23T05:20:14.032Z,10.10
2018-08-23T05:23:17.647Z,10.50
2018-08-23T05:25:46.424Z,10.70
2018-08-23T05:28:16.508Z,11.47
2018-08-23T05:30:45.802Z,10.27
2018-08-23T05:33:15.965Z,10.63
2018-08-23T05:35:44.817Z,11.57
2018-08-23T05:38:13.883Z,10.93
2018-08-23T05:40:46.227Z,11.33
2018-08-23T05:43:15.582Z,11.70
2018-08-23T05:46:02.440Z,11.80
2018-08-23T05:48:31.848Z,10.77
2018-08-23T05:51:06.532Z,11.17
2018-08-23T05:53:39.425Z,11.07
2018-08-23T05:56:08.630Z,11.20
2018-08-23T05:58:37.262Z,11.90
2018-08-23T06:01:06.087Z,11.43
2018-08-23T06:03:36.823Z,10.87
2018-08-23T06:06:05.528Z,11.33
2018-08-23T06:08:34.312Z,12.17
2018-08-23T06:11:10.768Z,11.50
2018-08-23T06:13:39.927Z,11.43
2018-08-23T06:16:08.935Z,11.70
2018-08-23T06:18:38.130Z,12.83
2018-08-23T06:21:06.926Z,12.67
2018-08-23T06:24:11.692Z,12.87
2018-08-23T06:26:47.339Z,11.50
2018-08-23T06:29:24.428Z,11.77
2018-08-23T06:32:09.393Z,11.67
2018-08-23T06:34:54.605Z,11.87
2018-08-23T06:37:23.457Z,10.67
2018-08-23T06:39:52.163Z,11.90
2018-08-23T06:42:21.803Z,11.87
2018-08-23T06:44:53.008Z,11.03
2018-08-23T06:47:23.559Z,11.20
2018-08-23T06:49:53.508Z,10.93
2018-08-23T06:53:00.271Z,10.63
2018-08-23T06:55:36.032Z,10.10
2018-08-23T06:58:05.595Z,10.13
2018-08-23T07:00:34.241Z,10.37
2018-08-23T07:03:04.916Z,10.13
2018-08-23T07:05:33.582Z,10.17
2018-08-23T07:08:02.179Z,8.53
2018-08-23T07:10:30.793Z,8.87
2018-08-23T07:12:59.415Z,8.80
2018-08-23T07:15:28.085Z,8.83
2018-08-23T07:18:08.381Z,9.00
2018-08-23T07:20:36.967Z,8.73
2018-08-23T07:23:15.529Z,8.80
2018-08-23T07:25:44.641Z,8.83
2018-08-23T07:28:13.549Z,8.33
2018-08-23T07:30:42.227Z,8.73
2018-08-23T07:33:10.874Z,8.87
2018-08-23T07:35:39.455Z,8.43
2018-08-23T07:38:08.552Z,8.40
2018-08-23T07:40:37.589Z,8.30
2018-08-23T07:43:06.484Z,8.67
2018-08-23T07:45:35.320Z,8.50
2018-08-23T07:48:04.158Z,8.90
2018-08-23T07:50:32.779Z,8.73
2018-08-23T07:53:01.503Z,8.93
2018-08-23T07:55:30.192Z,8.00
2018-08-23T07:57:58.861Z,8.30
2018-08-23T08:00:32.133Z,8.63
2018-08-23T08:03:00.859Z,7.30
2018-08-23T08:05:31.469Z,8.07
2018-08-23T08:08:00.252Z,7.93
2018-08-23T08:10:33.282Z,7.57
2018-08-23T08:13:01.974Z,7.03
2018-08-23T08:15:30.614Z,7.77
2018-08-23T08:18:13.737Z,7.67
2018-08-23T08:20:44.783Z,7.70
2018-08-23T08:23:13.451Z,7.60
2018-08-23T08:25:42.253Z,7.60
2018-08-23T08:28:15.026Z,8.03
2018-08-23T08:30:45.076Z,7.37
2018-08-23T08:33:17.131Z,7.60
2018-08-23T08:35:47.365Z,7.83
2018-08-23T08:38:15.984Z,7.77
2018-08-23T08:40:44.596Z,7.70
2018-08-23T08:43:13.194Z,7.67
2018-08-23T08:45:41.797Z,7.80
2018-08-23T08:48:24.911Z,7.33
2018-08-23T08:51:10.060Z,8.33
2018-08-23T08:53:38.636Z,7.80
2018-08-23T08:56:07.642Z,8.13
2018-08-23T08:58:36.997Z,7.63
2018-08-23T09:01:05.602Z,7.00
2018-08-23T09:03:35.699Z,7.00
2018-08-23T09:06:07.495Z,7.67
2018-08-23T09:08:37.653Z,8.17
2018-08-23T09:11:06.885Z,7.50
2018-08-23T09:13:41.046Z,7.80
2018-08-23T09:16:10.826Z,7.43
2018-08-23T09:18:45.228Z,7.30
2018-08-23T09:21:13.981Z,7.93
2018-08-23T09:23:42.655Z,7.63
2018-08-23T09:26:11.337Z,7.63
2018-08-23T09:28:40.101Z,7.77
2018-08-23T09:31:09.162Z,7.33
2018-08-23T09:33:37.832Z,7.70
2018-08-23T09:36:06.742Z,7.47
2018-08-23T09:38:35.284Z,7.33
2018-08-23T09:41:03.981Z,7.97
2018-08-23T09:43:33.862Z,7.37
2018-08-23T09:46:02.436Z,7.47
2018-08-23T09:48:31.120Z,7.07
2018-08-23T09:51:00.080Z,7.07
2018-08-23T09:53:28.650Z,7.90
2018-08-23T09:55:57.831Z,7.37
2018-08-23T09:58:32.982Z,7.60
2018-08-23T10:01:06.720Z,7.17
2018-08-23T10:03:40.635Z,7.43
2018-08-23T10:06:14.474Z,6.87
2018-08-23T10:08:48.760Z,6.53
2018-08-23T10:11:22.813Z,7.33
2018-08-23T10:13:56.739Z,7.90
2018-08-23T10:16:30.775Z,7.10
2018-08-23T10:19:04.352Z,6.87
2018-08-23T10:21:38.364Z,6.93
2018-08-23T10:24:16.533Z,7.10
2018-08-23T10:26:45.742Z,6.47
2018-08-23T10:29:15.050Z,7.27
2018-08-23T10:31:43.754Z,7.07
2018-08-23T10:34:12.460Z,7.10
2018-08-23T10:36:41.073Z,7.10
2018-08-23T10:39:12.049Z,7.60
2018-08-23T10:41:40.718Z,7.33
2018-08-23T10:44:09.365Z,6.77
2018-08-23T10:46:43.184Z,6.97
2018-08-23T10:49:12.083Z,7.17
2018-08-23T10:51:41.100Z,7.57
2018-08-23T10:54:09.739Z,6.77
2018-08-23T10:56:38.678Z,6.73
2018-08-23T10:59:07.498Z,7.00
2018-08-23T11:01:36.614Z,6.53
2018-08-23T11:04:08.257Z,6.53
2018-08-23T11:06:41.089Z,6.63
2018-08-23T11:10:39.797Z,6.63
2018-08-23T11:13:13.832Z,6.67
2018-08-23T11:15:43.162Z,6.57
2018-08-23T11:18:16.949Z,7.37
2018-08-23T11:20:51.270Z,6.23
2018-08-23T11:23:25.552Z,6.43
2018-08-23T11:25:54.222Z,6.33
2018-08-23T11:28:23.973Z,7.07
2018-08-23T11:30:53.490Z,7.10
2018-08-23T11:33:22.471Z,6.20
2018-08-23T11:35:51.083Z,5.90
2018-08-23T11:38:19.836Z,6.53
2018-08-23T11:40:48.708Z,5.73
2018-08-23T11:43:17.394Z,6.77
2018-08-23T11:45:46.088Z,6.33
2018-08-23T11:48:14.828Z,6.40
2018-08-23T11:50:43.604Z,6.20
2018-08-23T11:53:13.506Z,6.10
2018-08-23T11:55:42.170Z,6.07
2018-08-23T11:58:10.906Z,6.33
2018-08-23T12:00:39.693Z,6.17
2018-08-23T12:03:08.675Z,5.83
2018-08-23T12:05:37.268Z,6.40
2018-08-23T12:08:06.469Z,5.87
2018-08-23T12:10:35.223Z,6.40
2018-08-23T12:13:03.903Z,6.67
2018-08-23T12:15:47.169Z,6.27
2018-08-23T12:18:15.915Z,6.37
2018-08-23T12:20:44.548Z,6.57
2018-08-23T12:23:13.173Z,6.27
2018-08-23T12:25:41.802Z,6.93
2018-08-23T12:28:16.189Z,6.17
2018-08-23T12:30:44.833Z,6.27
2018-08-23T12:33:13.414Z,5.80
2018-08-23T12:35:42.046Z,5.90
2018-08-23T12:38:21.339Z,6.43
2018-08-23T12:40:55.757Z,6.83
2018-08-23T12:43:29.745Z,6.77
2018-08-23T12:46:02.588Z,5.90
2018-08-23T12:48:31.127Z,6.30
2018-08-23T12:50:59.929Z,6.10
2018-08-23T12:53:29.620Z,6.47
2018-08-23T12:55:58.509Z,5.70
2018-08-23T12:58:27.436Z,6.10
2018-08-23T13:00:56.202Z,7.37
2018-08-23T13:03:24.841Z,6.50
2018-08-23T13:05:53.525Z,6.77
2018-08-23T13:08:22.194Z,6.60
2018-08-23T13:10:50.832Z,6.90
2018-08-23T13:13:20.647Z,6.60
2018-08-23T13:15:49.233Z,5.97
2018-08-23T13:18:17.879Z,6.00
2018-08-23T13:20:46.526Z,5.93
2018-08-23T13:23:15.395Z,5.90
2018-08-23T13:25:49.452Z,5.73
2018-08-23T13:28:18.341Z,6.27
2018-08-23T13:30:47.381Z,5.90
2018-08-23T13:33:16.020Z,5.77
2018-08-23T13:35:44.666Z,5.73
2018-08-23T13:38:13.622Z,6.10
2018-08-23T13:40:42.513Z,5.40
2018-08-23T13:43:11.579Z,5.23
2018-08-23T13:45:40.187Z,5.47
2018-08-23T13:48:08.879Z,5.80
2018-08-23T13:50:37.811Z,6.10
2018-08-23T13:53:07.325Z,5.40
2018-08-23T13:55:36.012Z,5.93
2018-08-23T13:58:04.997Z,5.73
2018-08-23T14:00:40.588Z,6.13
2018-08-23T14:03:10.097Z,6.40
2018-08-23T14:05:40.035Z,6.50
2018-08-23T14:08:08.984Z,6.00
2018-08-23T14:10:37.780Z,6.27
2018-08-23T14:13:06.883Z,6.43
2018-08-23T14:15:40.847Z,5.60
2018-08-23T14:18:09.594Z,6.20
2018-08-23T14:20:38.206Z,6.20
2018-08-23T14:23:06.887Z,6.53
2018-08-23T14:25:35.815Z,5.53
2018-08-23T14:28:04.500Z,6.00
2018-08-23T14:30:33.235Z,5.63
2018-08-23T14:33:02.022Z,5.70
2018-08-23T14:35:30.593Z,6.20
2018-08-23T14:37:59.233Z,5.80
2018-08-23T14:40:27.940Z,6.57
2018-08-23T14:42:56.599Z,5.70
2018-08-23T14:45:32.309Z,6.47
2018-08-23T14:48:06.335Z,6.50
2018-08-23T14:50:35.906Z,6.70
2018-08-23T14:53:05.450Z,6.90
2018-08-23T14:55:39.596Z,6.40
2018-08-23T14:58:09.236Z,6.90
2018-08-23T15:00:37.895Z,6.90
2018-08-23T15:03:06.753Z,6.83
2018-08-23T15:05:35.540Z,7.50
2018-08-23T15:08:04.252Z,7.37
2018-08-23T15:10:32.978Z,7.50
2018-08-23T15:13:01.645Z,7.07
2018-08-23T15:15:35.564Z,7.20
2018-08-23T15:18:04.157Z,7.83
2018-08-23T15:20:32.709Z,7.80
2018-08-23T15:23:01.753Z,7.73
2018-08-23T15:25:30.323Z,7.47
2018-08-23T15:27:58.931Z,7.37
2018-08-23T15:30:27.693Z,7.90
2018-08-23T15:32:56.554Z,7.43
2018-08-23T15:38:08.282Z,7.80
2018-08-23T15:40:36.873Z,8.33
2018-08-23T15:43:05.726Z,8.10
2018-08-23T15:45:34.317Z,8.00
2018-08-23T15:48:02.974Z,8.90
2018-08-23T15:50:31.537Z,8.17
2018-08-23T15:53:00.277Z,9.10
2018-08-23T15:55:29.185Z,10.37
2018-08-23T15:57:57.634Z,9.13
2018-08-23T16:00:26.308Z,9.27
2018-08-23T16:02:55.156Z,10.20
2018-08-23T16:05:23.799Z,8.67
2018-08-23T16:07:52.380Z,9.07
2018-08-23T16:10:21.411Z,9.10
2018-08-23T16:12:55.197Z,9.27
2018-08-23T16:15:25.037Z,9.67
2018-08-23T16:17:58.886Z,9.57
2018-08-23T16:20:32.891Z,9.87
2018-08-23T16:23:01.700Z,9.47
2018-08-23T16:25:34.541Z,9.10
2018-08-23T16:28:03.192Z,9.87
2018-08-23T16:30:31.988Z,9.07
2018-08-23T16:33:00.823Z,8.80
2018-08-23T16:35:29.496Z,9.50
2018-08-23T16:37:58.087Z,9.07
2018-08-23T16:40:30.738Z,8.90
2018-08-23T16:43:00.572Z,10.13
2018-08-23T16:45:29.667Z,9.50
2018-08-23T16:47:58.453Z,10.60
2018-08-23T16:50:27.753Z,9.80
2018-08-23T16:52:56.553Z,10.23
2018-08-23T16:55:25.261Z,10.40
2018-08-23T16:57:53.885Z,11.60
2018-08-23T17:00:22.894Z,10.70
2018-08-23T17:02:51.803Z,10.33
2018-08-23T17:05:20.637Z,11.67
2018-08-23T17:07:49.225Z,10.47
2018-08-23T17:10:17.921Z,10.37
2018-08-23T17:12:46.525Z,10.17
2018-08-23T17:15:16.125Z,9.87
2018-08-23T17:17:55.728Z,10.60
2018-08-23T17:20:24.514Z,10.17
2018-08-23T17:22:53.390Z,9.47
2018-08-23T17:25:22.053Z,9.60
2018-08-23T17:27:50.695Z,8.83
2018-08-23T17:30:19.275Z,9.63
2018-08-23T17:32:47.961Z,9.53
2018-08-23T17:35:16.579Z,8.63
2018-08-23T17:37:45.237Z,8.90
2018-08-23T17:40:13.783Z,9.53
2018-08-23T17:42:42.440Z,9.03
2018-08-23T17:45:12.526Z,9.07
2018-08-23T17:47:41.152Z,8.00
2018-08-23T17:50:09.792Z,8.07
2018-08-23T17:52:39.088Z,9.07
2018-08-23T17:55:07.817Z,9.33
2018-08-23T17:57:37.541Z,10.30
2018-08-23T18:00:06.316Z,10.73
2018-08-23T18:02:34.968Z,9.80
2018-08-23T18:05:03.601Z,9.83
2018-08-23T18:07:32.267Z,9.27
2018-08-23T18:10:00.884Z,10.03
2018-08-23T18:12:29.724Z,9.17
2018-08-23T18:14:58.392Z,8.97
2018-08-23T18:17:27.115Z,10.30
2018-08-23T18:19:55.766Z,9.80
2018-08-23T18:22:24.449Z,10.23
2018-08-23T18:24:53.032Z,10.27
2018-08-23T18:27:21.677Z,10.47
2018-08-23T18:29:50.243Z,9.73
2018-08-23T18:32:18.996Z,9.70
2018-08-23T18:34:47.545Z,10.40
2018-08-23T18:37:16.095Z,10.30
2018-08-23T18:39:45.050Z,10.23
2018-08-23T18:42:13.684Z,9.70
2018-08-23T18:44:42.355Z,9.30
2018-08-23T18:47:11.214Z,9.60
2018-08-23T18:49:39.871Z,8.93
2018-08-23T18:52:08.746Z,9.53
2018-08-23T18:54:37.556Z,9.87
2018-08-23T18:57:06.527Z,9.80
2018-08-23T18:59:35.198Z,10.00
2018-08-23T19:02:04.243Z,10.03
2018-08-23T19:04:32.863Z,9.20
2018-08-23T19:07:01.699Z,9.30
2018-08-23T19:09:30.369Z,9.43
2018-08-23T19:11:59.111Z,10.40
2018-08-23T19:14:27.733Z,9.53
2018-08-23T19:17:01.504Z,9.33
2018-08-23T19:19:30.463Z,11.00
2018-08-23T19:21:59.545Z,8.67
2018-08-23T19:24:28.379Z,9.83
2018-08-23T19:26:57.012Z,8.83
2018-08-23T19:29:26.281Z,8.90
2018-08-23T19:31:54.936Z,8.60
2018-08-23T19:34:23.830Z,8.30
2018-08-23T19:36:52.420Z,8.47
2018-08-23T19:39:20.984Z,8.23
2018-08-23T19:41:49.958Z,7.93
2018-08-23T19:44:18.749Z,7.50
2018-08-23T19:46:52.760Z,8.10
2018-08-23T19:49:26.768Z,7.30
2018-08-23T19:51:55.676Z,7.90
2018-08-23T19:54:24.233Z,8.17
2018-08-23T19:56:52.787Z,7.83
2018-08-23T19:59:21.477Z,8.20
2018-08-23T20:01:50.958Z,8.67
2018-08-23T20:04:19.562Z,9.77
2018-08-23T20:06:49.013Z,10.37
2018-08-23T20:09:17.680Z,9.50
2018-08-23T20:11:46.707Z,9.93
2018-08-23T20:14:15.352Z,10.17
2018-08-23T20:16:44.320Z,10.60
2018-08-23T20:19:13.009Z,10.73
2018-08-23T20:21:41.674Z,9.50
2018-08-23T20:24:10.435Z,9.07
2018-08-23T20:26:39.362Z,9.37
2018-08-23T20:29:08.440Z,9.13
2018-08-23T20:31:37.038Z,8.13
2018-08-23T20:34:05.805Z,8.70
2018-08-23T20:36:34.864Z,9.00
2018-08-23T20:39:04.973Z,8.90
2018-08-23T20:41:34.004Z,8.73
2018-08-23T20:44:02.699Z,9.00
2018-08-23T20:46:31.323Z,8.53
2018-08-23T20:48:59.994Z,9.00
2018-08-23T20:51:28.590Z,8.13
2018-08-23T20:53:58.231Z,7.90
2018-08-23T20:56:27.400Z,8.77
2018-08-23T20:58:57.024Z,8.07
2018-08-23T21:01:25.708Z,7.77
2018-08-23T21:03:54.678Z,8.07
2018-08-23T21:06:23.304Z,6.97
2018-08-23T21:08:52.243Z,7.33
2018-08-23T21:11:21.737Z,8.47
2018-08-23T21:13:51.499Z,7.03
2018-08-23T21:16:20.608Z,7.40
2018-08-23T21:18:49.230Z,7.63
2018-08-23T21:21:19.212Z,7.50
2018-08-23T21:23:47.901Z,7.20
2018-08-23T21:26:16.571Z,8.20
2018-08-23T21:28:45.169Z,7.07
2018-08-23T21:31:13.931Z,6.57
2018-08-23T21:33:43.084Z,6.57
2018-08-23T21:36:11.711Z,7.10
2018-08-23T21:38:40.361Z,7.50
2018-08-23T21:41:09.291Z,7.70
2018-08-23T21:43:38.005Z,7.37
2018-08-23T21:46:06.644Z,7.67
2018-08-23T21:48:35.262Z,7.00
2018-08-23T21:51:04.022Z,7.20
2018-08-23T21:53:32.919Z,7.83
2018-08-23T21:56:01.643Z,7.53
2018-08-23T21:58:30.283Z,7.93
2018-08-23T22:01:04.320Z,8.40
2018-08-23T22:03:32.895Z,7.47
2018-08-23T22:06:01.570Z,7.53
2018-08-23T22:08:30.211Z,7.50
2018-08-23T22:10:58.754Z,7.80
2018-08-23T22:13:27.695Z,7.77
2018-08-23T22:15:56.320Z,7.90
2018-08-23T22:18:24.865Z,6.83
2018-08-23T22:20:53.590Z,7.27
2018-08-23T22:23:22.438Z,8.07
2018-08-23T22:25:50.987Z,6.87
2018-08-23T22:28:19.614Z,7.57
2018-08-23T22:30:48.303Z,7.37
2018-08-23T22:33:17.181Z,7.77
2018-08-23T22:35:45.804Z,6.83
2018-08-23T22:38:14.363Z,7.20
2018-08-23T22:40:42.934Z,6.87
2018-08-23T22:43:11.521Z,6.50
2018-08-23T22:45:40.135Z,6.93
2018-08-23T22:48:09.061Z,6.93
2018-08-23T22:50:37.698Z,7.17
2018-08-23T22:53:06.316Z,7.07
2018-08-23T22:55:34.921Z,7.77
2018-08-23T22:58:03.570Z,7.20
2018-08-23T23:00:37.541Z,7.10
2018-08-23T23:03:11.642Z,7.17
2018-08-23T23:05:40.219Z,7.03
2018-08-23T23:08:09.547Z,7.10
2018-08-23T23:10:38.951Z,6.63
2018-08-23T23:13:07.844Z,7.23
2018-08-23T23:15:36.399Z,7.57
2018-08-23T23:18:05.367Z,7.10
2018-08-23T23:20:34.090Z,6.93
2018-08-23T23:23:03.156Z,6.70
2018-08-23T23:25:31.779Z,7.60
2018-08-23T23:28:00.403Z,7.10
2018-08-23T23:30:29.293Z,7.30
2018-08-23T23:32:58.242Z,7.60
2018-08-23T23:35:26.895Z,7.10
2018-08-23T23:37:55.640Z,7.17
2018-08-23T23:40:24.424Z,6.90
2018-08-23T23:42:53.114Z,7.33
2018-08-23T23:45:21.660Z,7.30
2018-08-23T23:47:50.291Z,6.67
2018-08-23T23:50:19.684Z,6.97
2018-08-23T23:52:48.535Z,7.37
2018-08-23T23:55:17.178Z,6.87
2018-08-23T23:57:45.824Z,7.10
